Lake Katrine, New York
Current Conditions -  °F | °C
As of 12:53 PM on Saturday 20 Dec 2014 (Local Time) from KPOU Reporting Station
Overcast Overcast  
Wind Chill: 23°   Ceiling: 3100
Heat Index: 31°   Visibility: 10mi
Dew Point: 19°   Wind: 8mph
Humidity: 61%   Direction: 10°N
Pressure: 30.27"   Gusts: NA
Location:  41.98°N, 73.99°W
Report Text: KPOU 201753Z 01007KT 10SM OVC031 M01/M07 A3027 RMK AO2 SLP250 T10061072 11006 21022 58010
Loading
Personal Weather Stations






























Interactive Weather Map New forecast layout! Learn more

10-Day Weather Forecast

Advertisements
Track Severe Weather on mobile